Time;durP1;ratioP1;P1;durP2;ratioP2;P2;SDS_P1;SDS_P2;PMS_P1;PMS_P2;Temp;Humidity;BMP_temperature;BMP_pressure;BME280_temperature;BME280_humidity;BME280_pressure;Samples;Min_cycle;Max_cycle;Signal;HPM_P1;HPM_P2
2023/03/06 00:02:17;;;;;;;8.83;5.40;;;;;;;-145.18;100.00;46683.84;5031104;28;20161;-71
2023/03/06 00:04:42;;;;;;;8.80;4.87;;;;;;;-145.18;100.00;46685.78;5029729;28;20081;-71
2023/03/06 00:07:09;;;;;;;10.93;5.45;;;;;;;-145.18;100.00;46695.56;5044140;28;20095;-71
2023/03/06 00:09:34;;;;;;;10.37;5.10;;;;;;;-145.18;100.00;46687.75;5047719;28;20029;-71
2023/03/06 00:11:59;;;;;;;8.73;5.43;;;;;;;-145.18;100.00;46687.75;5044595;28;20171;-71
2023/03/06 00:14:25;;;;;;;12.53;5.37;;;;;;;-145.18;100.00;46689.69;5029590;28;20111;-71
2023/03/06 00:16:54;;;;;;;12.70;5.63;;;;;;;-145.18;100.00;46689.69;5038832;28;20025;-71
2023/03/06 00:19:20;;;;;;;12.70;6.20;;;;;;;-145.18;100.00;46685.78;5048016;28;20052;-71
2023/03/06 00:21:46;;;;;;;10.60;6.32;;;;;;;-145.18;100.00;46689.69;5041285;28;20394;-71
2023/03/06 00:24:11;;;;;;;10.70;6.90;;;;;;;-145.18;100.00;46695.56;5047780;28;20045;-71
2023/03/06 00:26:38;;;;;;;11.27;6.70;;;;;;;-145.18;100.00;46685.78;5045678;28;20122;-71
2023/03/06 00:29:03;;;;;;;13.85;7.28;;;;;;;-145.18;100.00;46687.75;5046832;28;20044;-71
2023/03/06 00:31:29;;;;;;;12.63;7.63;;;;;;;-145.18;100.00;46685.78;5016146;28;20041;-71
2023/03/06 00:33:54;;;;;;;12.53;7.37;;;;;;;-145.18;100.00;46689.69;5048081;28;20036;-71
2023/03/06 00:36:19;;;;;;;14.90;8.50;;;;;;;-145.18;100.00;46687.75;5044444;28;20044;-71
2023/03/06 00:38:45;;;;;;;15.87;8.80;;;;;;;-145.18;100.00;46691.66;5033251;28;20068;-71
2023/03/06 00:41:12;;;;;;;15.07;8.03;;;;;;;-145.18;100.00;46685.78;5042445;28;20029;-72
2023/03/06 00:43:37;;;;;;;20.23;9.07;;;;;;;-145.18;100.00;46685.78;5033226;28;20037;-71
2023/03/06 00:46:04;;;;;;;13.13;8.17;;;;;;;-145.18;100.00;46687.75;5047101;28;20036;-71
2023/03/06 00:48:31;;;;;;;16.73;8.90;;;;;;;-145.18;100.00;46679.94;5034946;28;20442;-71
2023/03/06 00:50:56;;;;;;;15.05;8.35;;;;;;;-145.18;100.00;46687.75;5049747;28;20651;-71
2023/03/06 00:53:22;;;;;;;18.27;8.30;;;;;;;-145.18;100.00;46683.84;5034922;28;20121;-71
2023/03/06 00:55:48;;;;;;;15.93;8.93;;;;;;;-145.18;100.00;46687.75;5016544;28;20040;-71
2023/03/06 00:58:14;;;;;;;16.08;9.48;;;;;;;-145.18;100.00;46683.84;5047039;28;20022;-71
2023/03/06 01:00:39;;;;;;;14.87;8.60;;;;;;;-145.18;100.00;46701.41;5050795;28;20386;-72
2023/03/06 01:03:05;;;;;;;16.50;9.43;;;;;;;-145.18;100.00;46685.78;5038110;28;20072;-72
2023/03/06 01:05:33;;;;;;;16.93;8.37;;;;;;;-145.18;100.00;46679.94;5033773;28;20045;-72
2023/03/06 01:07:59;;;;;;;18.75;8.13;;;;;;;-145.18;100.00;46683.84;5042186;28;20417;-72
2023/03/06 01:10:26;;;;;;;13.67;8.13;;;;;;;-145.18;100.00;46683.84;5032426;28;20036;-72
2023/03/06 01:12:51;;;;;;;17.83;8.80;;;;;;;-145.18;100.00;46685.78;5040385;28;20025;-71
2023/03/06 01:15:17;;;;;;;16.73;9.07;;;;;;;-145.18;100.00;46681.88;5051195;28;20112;-71
2023/03/06 01:17:42;;;;;;;13.73;8.13;;;;;;;-145.18;100.00;46685.78;5042541;28;20055;-71
2023/03/06 01:20:12;;;;;;;18.10;8.63;;;;;;;-145.18;100.00;46676.03;5032733;28;20517;-72
2023/03/06 01:22:38;;;;;;;17.90;8.50;;;;;;;-145.18;100.00;46679.94;5033210;28;20033;-71
2023/03/06 01:25:03;;;;;;;17.57;8.80;;;;;;;-145.18;100.00;46685.78;5015058;28;20553;-71
2023/03/06 01:27:29;;;;;;;18.60;9.57;;;;;;;-145.18;100.00;46679.94;5038025;28;20041;-71
2023/03/06 01:29:54;;;;;;;20.77;8.97;;;;;;;-145.18;100.00;46679.94;5050093;28;20037;-71
2023/03/06 01:32:20;;;;;;;17.57;8.83;;;;;;;-145.18;100.00;46676.03;5028927;28;20041;-71
2023/03/06 01:34:46;;;;;;;18.63;8.77;;;;;;;-145.18;100.00;46679.94;5034760;28;20060;-71
2023/03/06 01:37:11;;;;;;;16.43;8.43;;;;;;;-145.18;100.00;46681.88;5041134;28;20029;-71
2023/03/06 01:39:36;;;;;;;16.63;8.67;;;;;;;-145.18;100.00;46677.97;5048505;28;20478;-72
2023/03/06 01:42:02;;;;;;;17.27;9.37;;;;;;;-145.18;100.00;46676.03;5050233;28;20045;-72
2023/03/06 01:44:27;;;;;;;19.17;9.77;;;;;;;-145.18;100.00;46670.16;5043840;28;20087;-72
2023/03/06 01:46:53;;;;;;;17.50;8.97;;;;;;;-145.18;100.00;46676.03;5049926;28;20497;-72
2023/03/06 01:49:26;;;;;;;20.00;9.20;;;;;;;-145.18;100.00;46672.13;5034133;28;20083;-72
2023/03/06 01:51:53;;;;;;;19.02;9.07;;;;;;;-145.18;100.00;46677.97;5033285;28;20144;-72
2023/03/06 01:54:25;;;;;;;21.90;9.00;;;;;;;-145.18;100.00;46679.94;5044880;28;20100;-72
2023/03/06 01:56:55;;;;;;;14.50;7.95;;;;;;;-145.18;100.00;46679.94;5050047;28;20029;-72
2023/03/06 01:59:22;;;;;;;17.73;8.75;;;;;;;-145.18;100.00;46683.84;5035467;28;20091;-72
2023/03/06 02:01:49;;;;;;;18.75;9.65;;;;;;;-145.18;100.00;46677.97;5031612;28;20095;-72
2023/03/06 02:04:16;;;;;;;16.27;8.43;;;;;;;-145.18;100.00;46681.88;5041538;28;20045;-72
2023/03/06 02:06:42;;;;;;;18.90;8.55;;;;;;;-145.18;100.00;46676.03;5032491;28;20132;-72
2023/03/06 02:09:09;;;;;;;16.63;8.70;;;;;;;-145.18;100.00;46681.88;5032327;28;20034;-72
2023/03/06 02:11:34;;;;;;;15.63;8.18;;;;;;;-145.18;100.00;46683.84;5031267;28;20037;-72
2023/03/06 02:14:00;;;;;;;18.40;9.13;;;;;;;-145.18;100.00;46677.97;5041107;28;20440;-72
2023/03/06 02:16:28;;;;;;;22.93;9.73;;;;;;;-145.18;100.00;46679.94;5048268;28;20489;-72
2023/03/06 02:18:54;;;;;;;19.33;9.82;;;;;;;-145.18;100.00;46674.06;5048363;28;20028;-72
2023/03/06 02:21:24;;;;;;;18.27;9.35;;;;;;;-145.18;100.00;46679.94;5047675;28;20044;-72
2023/03/06 02:23:52;;;;;;;21.45;9.30;;;;;;;-145.18;100.00;46677.97;5037899;28;20048;-72
2023/03/06 02:26:19;;;;;;;17.77;9.13;;;;;;;-145.18;100.00;46672.13;5049468;28;20106;-72
2023/03/06 02:28:45;;;;;;;17.58;9.00;;;;;;;-145.18;100.00;46679.94;5043950;28;20029;-72
2023/03/06 02:31:21;;;;;;;20.90;9.33;;;;;;;-145.18;100.00;46683.84;5046624;28;20029;-73
2023/03/06 02:34:13;;;;;;;21.45;9.38;;;;;;;-145.18;100.00;46677.97;5046136;28;20025;-72
2023/03/06 02:36:46;;;;;;;24.38;9.82;;;;;;;-145.18;100.00;46683.84;5048796;28;20025;-73
2023/03/06 02:39:12;;;;;;;20.08;10.35;;;;;;;-145.18;100.00;46676.03;5039536;28;20056;-72
2023/03/06 02:41:37;;;;;;;24.00;9.65;;;;;;;-145.18;100.00;46685.78;5048382;28;20115;-73
2023/03/06 02:44:03;;;;;;;26.07;9.27;;;;;;;-145.18;100.00;46676.03;5043898;28;20136;-72
2023/03/06 02:46:28;;;;;;;20.90;10.57;;;;;;;-145.18;100.00;46677.97;5034177;28;20029;-72
2023/03/06 02:48:54;;;;;;;17.47;9.77;;;;;;;-145.18;100.00;46676.03;5036787;28;20548;-72
2023/03/06 02:51:19;;;;;;;20.27;9.13;;;;;;;-145.18;100.00;46670.16;5048581;28;20466;-72
2023/03/06 02:53:45;;;;;;;22.93;9.57;;;;;;;-145.18;100.00;46679.94;5047313;28;20041;-72
2023/03/06 02:56:10;;;;;;;21.17;9.87;;;;;;;-145.18;100.00;46676.03;5030990;28;20434;-72
2023/03/06 02:58:36;;;;;;;25.73;10.00;;;;;;;-145.18;100.00;46679.94;5030568;28;20091;-72
2023/03/06 03:03:37;;;;;;;21.67;9.95;;;;;;;-145.18;100.00;46676.03;4942228;23;20054;-72
2023/03/06 03:06:04;;;;;;;20.93;9.40;;;;;;;-145.18;100.00;46677.97;5037981;28;20044;-71
2023/03/06 03:08:29;;;;;;;25.25;10.68;;;;;;;-145.18;100.00;46683.84;5030229;28;20056;-71
2023/03/06 03:10:55;;;;;;;22.10;10.23;;;;;;;-145.18;100.00;46674.06;5030564;28;20111;-71
2023/03/06 03:13:21;;;;;;;20.50;10.33;;;;;;;-145.18;100.00;46677.97;5030690;28;20398;-71
2023/03/06 03:16:06;;;;;;;24.50;9.47;;;;;;;-145.18;100.00;46679.94;5030499;28;20495;-71
2023/03/06 03:18:32;;;;;;;19.20;9.50;;;;;;;-145.18;100.00;46679.94;5030273;28;20037;-71
2023/03/06 03:20:58;;;;;;;20.35;8.70;;;;;;;-145.18;100.00;46668.22;5046600;28;20040;-71
2023/03/06 03:23:24;;;;;;;17.73;8.80;;;;;;;-145.18;100.00;46676.03;5050324;28;20029;-71
2023/03/06 03:25:49;;;;;;;20.33;9.13;;;;;;;-145.18;100.00;46685.78;5049897;28;20083;-71
2023/03/06 03:28:15;;;;;;;19.00;9.03;;;;;;;-145.18;100.00;46681.88;5050328;28;20029;-71
2023/03/06 03:30:41;;;;;;;19.87;9.23;;;;;;;-145.18;100.00;46674.06;5050098;28;20104;-73
2023/03/06 03:33:07;;;;;;;19.37;8.57;;;;;;;-145.18;100.00;46677.97;5050058;28;20284;-71
2023/03/06 03:35:32;;;;;;;19.03;9.27;;;;;;;-145.18;100.00;46679.94;5048387;28;20484;-71
2023/03/06 03:37:58;;;;;;;19.33;8.20;;;;;;;-145.18;100.00;46676.03;5049653;28;20037;-71
2023/03/06 03:40:23;;;;;;;20.17;8.47;;;;;;;-145.18;100.00;46676.03;5050177;28;20025;-71
2023/03/06 03:42:48;;;;;;;19.63;8.03;;;;;;;-145.18;100.00;46674.06;5049504;28;20025;-71
2023/03/06 03:45:14;;;;;;;20.27;8.30;;;;;;;-145.18;100.00;46677.97;5050183;28;20112;-71
2023/03/06 03:47:40;;;;;;;20.77;8.93;;;;;;;-145.18;100.00;46676.03;5049680;28;20437;-71
2023/03/06 03:50:06;;;;;;;19.17;8.13;;;;;;;-145.18;100.00;46674.06;5048314;28;20520;-71
2023/03/06 03:52:32;;;;;;;28.23;8.82;;;;;;;-145.18;100.00;46674.06;5049766;28;20120;-71
2023/03/06 03:54:57;;;;;;;23.50;8.70;;;;;;;-145.18;100.00;46676.03;5049627;28;20430;-70
2023/03/06 03:57:22;;;;;;;24.57;8.67;;;;;;;-145.18;100.00;46679.94;5049602;28;20648;-71
2023/03/06 03:59:48;;;;;;;20.90;8.10;;;;;;;-145.18;100.00;46674.06;5049773;28;20033;-70
2023/03/06 04:02:13;;;;;;;23.97;8.00;;;;;;;-145.18;100.00;46674.06;5039801;28;20049;-70
2023/03/06 04:04:39;;;;;;;19.03;7.80;;;;;;;-145.18;100.00;46676.03;5029814;28;20029;-71
2023/03/06 04:07:04;;;;;;;20.63;7.73;;;;;;;-145.18;100.00;46676.03;5027945;28;20092;-71
2023/03/06 04:09:30;;;;;;;21.03;7.80;;;;;;;-145.18;100.00;46676.03;5030030;28;20043;-71
2023/03/06 04:11:55;;;;;;;19.43;7.90;;;;;;;-145.18;100.00;46672.13;5032054;28;20033;-71
2023/03/06 04:14:21;;;;;;;20.07;7.53;;;;;;;-145.18;100.00;46672.13;5033773;28;20677;-71
2023/03/06 04:16:46;;;;;;;19.20;8.07;;;;;;;-145.18;100.00;46677.97;5033719;28;20045;-71
2023/03/06 04:19:11;;;;;;;20.53;7.40;;;;;;;-145.18;100.00;46674.06;5033800;28;20461;-70
2023/03/06 04:21:37;;;;;;;21.70;8.70;;;;;;;-145.18;100.00;46674.06;5010128;28;20034;-70
2023/03/06 04:24:02;;;;;;;24.83;7.77;;;;;;;-145.18;100.00;46676.03;5013806;28;20426;-71
2023/03/06 04:26:28;;;;;;;18.00;7.70;;;;;;;-145.18;100.00;46672.13;5014019;28;20069;-70
2023/03/06 04:28:54;;;;;;;19.77;9.03;;;;;;;-145.18;100.00;46676.03;5013772;28;20105;-70
2023/03/06 04:31:20;;;;;;;18.17;7.47;;;;;;;-145.18;100.00;46674.06;5013861;28;20034;-70
2023/03/06 04:33:46;;;;;;;25.47;8.80;;;;;;;-145.18;100.00;46676.03;5013395;28;20045;-70
2023/03/06 04:36:27;;;;;;;18.70;7.63;;;;;;;-145.18;100.00;46677.97;5013729;28;20046;-70
2023/03/06 04:38:52;;;;;;;18.80;8.15;;;;;;;-145.18;100.00;46676.03;5015132;28;20029;-70
2023/03/06 04:41:17;;;;;;;18.23;7.53;;;;;;;-145.18;100.00;46676.03;5033017;28;20060;-70
2023/03/06 04:43:43;;;;;;;19.87;8.30;;;;;;;-145.18;100.00;46676.03;5033032;28;20051;-70
2023/03/06 04:46:10;;;;;;;18.27;7.90;;;;;;;-145.18;100.00;46674.06;5033601;28;20030;-70
2023/03/06 04:48:35;;;;;;;19.80;9.55;;;;;;;-145.18;100.00;46677.97;5033265;28;20496;-70
2023/03/06 04:51:01;;;;;;;24.03;7.83;;;;;;;-145.18;100.00;46683.84;5015555;28;20069;-70
2023/03/06 04:53:26;;;;;;;24.27;7.63;;;;;;;-145.18;100.00;46677.97;5031303;28;20045;-70
2023/03/06 04:55:51;;;;;;;19.33;8.17;;;;;;;-145.18;100.00;46674.06;5033053;28;20034;-70
2023/03/06 04:58:17;;;;;;;22.63;8.47;;;;;;;-145.18;100.00;46681.88;5033179;28;20057;-71
2023/03/06 05:00:42;;;;;;;16.97;7.73;;;;;;;-145.18;100.00;46674.06;5033098;28;20490;-70
2023/03/06 05:03:13;;;;;;;17.50;8.60;;;;;;;-145.18;100.00;46679.94;5032606;28;20107;-70
2023/03/06 05:05:39;;;;;;;17.60;7.40;;;;;;;-145.18;100.00;46674.06;5011385;28;20034;-70
2023/03/06 05:08:05;;;;;;;22.98;8.13;;;;;;;-145.18;100.00;46670.16;5014419;28;20061;-70
2023/03/06 05:10:30;;;;;;;17.27;8.43;;;;;;;-145.18;100.00;46676.03;5020663;28;20497;-70
2023/03/06 05:13:03;;;;;;;17.80;8.00;;;;;;;-145.18;100.00;46676.03;5032457;28;20049;-70
2023/03/06 05:15:29;;;;;;;20.10;8.85;;;;;;;-145.18;100.00;46677.97;5014422;28;20032;-71
2023/03/06 05:17:55;;;;;;;17.50;7.90;;;;;;;-145.18;100.00;46674.06;5014773;28;20050;-70
2023/03/06 05:20:20;;;;;;;20.20;7.50;;;;;;;-145.18;100.00;46668.22;5013362;28;20113;-71
2023/03/06 05:22:46;;;;;;;24.00;8.77;;;;;;;-145.18;100.00;46674.06;5011845;28;20038;-71
2023/03/06 05:25:11;;;;;;;29.97;15.80;;;;;;;-145.18;100.00;46672.13;5012866;28;20045;-71
2023/03/06 05:27:37;;;;;;;37.80;15.77;;;;;;;-145.18;100.00;46676.03;5032056;28;20037;-71
2023/03/06 05:30:03;;;;;;;35.72;14.73;;;;;;;-145.18;100.00;46676.03;5032617;28;20410;-70
2023/03/06 05:32:29;;;;;;;24.90;12.60;;;;;;;-145.18;100.00;46676.03;5032035;28;20072;-71
2023/03/06 05:34:55;;;;;;;20.90;10.90;;;;;;;-145.18;100.00;46670.16;5032331;28;20030;-71
2023/03/06 05:37:21;;;;;;;21.77;10.13;;;;;;;-145.18;100.00;46674.06;5032523;28;20255;-71
2023/03/06 05:39:47;;;;;;;20.77;9.73;;;;;;;-145.18;100.00;46679.94;5013126;28;20033;-71
2023/03/06 05:42:13;;;;;;;24.20;10.47;;;;;;;-145.18;100.00;46676.03;5032267;28;20034;-71
2023/03/06 05:44:40;;;;;;;19.87;8.73;;;;;;;-145.18;100.00;46674.06;5032030;28;20037;-71
2023/03/06 05:47:06;;;;;;;21.30;9.90;;;;;;;-145.18;100.00;46676.03;5032301;28;20029;-72
2023/03/06 05:49:33;;;;;;;21.30;10.03;;;;;;;-145.18;100.00;46683.84;5032112;28;20049;-72
2023/03/06 05:52:02;;;;;;;22.00;9.38;;;;;;;-145.18;100.00;46683.84;5032015;28;20073;-72
2023/03/06 05:54:28;;;;;;;20.47;8.90;;;;;;;-145.18;100.00;46674.06;5031923;28;20033;-73
2023/03/06 05:56:56;;;;;;;18.87;9.23;;;;;;;-145.18;100.00;46674.06;5031763;28;20270;-72
2023/03/06 05:59:22;;;;;;;18.77;7.90;;;;;;;-145.18;100.00;46672.13;5032035;28;20067;-75
2023/03/06 06:01:47;;;;;;;15.45;7.18;;;;;;;-145.18;100.00;46679.94;5013844;28;20428;-72
2023/03/06 06:04:13;;;;;;;23.23;8.47;;;;;;;-145.18;100.00;46674.06;5030366;28;20049;-72
2023/03/06 06:06:39;;;;;;;25.93;8.67;;;;;;;-145.18;100.00;46674.06;5031586;28;20039;-72
2023/03/06 06:09:04;;;;;;;21.03;8.23;;;;;;;-145.18;100.00;46670.16;5031621;28;20313;-72
2023/03/06 06:11:30;;;;;;;20.00;8.60;;;;;;;-145.18;100.00;46676.03;5031998;28;20060;-72
2023/03/06 06:13:55;;;;;;;19.00;8.30;;;;;;;-145.18;100.00;46674.06;5031206;28;20401;-72
2023/03/06 06:16:21;;;;;;;19.00;8.87;;;;;;;-145.18;100.00;46676.03;5030804;28;20041;-72
2023/03/06 06:18:46;;;;;;;22.87;9.40;;;;;;;-145.18;100.00;46679.94;5031271;28;20375;-72
2023/03/06 06:21:13;;;;;;;22.80;8.87;;;;;;;-145.18;100.00;46672.13;5031471;28;20753;-72
2023/03/06 06:23:39;;;;;;;22.95;9.60;;;;;;;-145.18;100.00;46677.97;5031159;28;20057;-72
2023/03/06 06:26:07;;;;;;;19.75;8.88;;;;;;;-145.18;100.00;46679.94;5031411;28;20060;-72
2023/03/06 06:28:33;;;;;;;23.70;9.90;;;;;;;-145.18;100.00;46676.03;5031212;28;20018;-72
2023/03/06 06:30:59;;;;;;;30.37;9.40;;;;;;;-145.18;100.00;46676.03;5031012;28;20322;-72
2023/03/06 06:33:25;;;;;;;21.13;10.30;;;;;;;-145.18;100.00;46672.13;5030896;28;20031;-72
2023/03/06 06:35:51;;;;;;;26.80;9.95;;;;;;;-145.18;100.00;46677.97;5029949;28;20445;-72
2023/03/06 06:38:16;;;;;;;25.97;10.67;;;;;;;-145.18;100.00;46672.13;5030967;28;20034;-72
2023/03/06 06:40:42;;;;;;;25.17;11.10;;;;;;;-145.18;100.00;46677.97;5030631;28;20454;-72
2023/03/06 06:43:07;;;;;;;24.80;10.80;;;;;;;-145.18;100.00;46674.06;5030997;28;20565;-72
2023/03/06 06:45:33;;;;;;;26.80;10.73;;;;;;;-145.18;100.00;46676.03;5030964;28;20029;-72
2023/03/06 06:47:58;;;;;;;23.40;10.23;;;;;;;-145.18;100.00;46670.16;5030801;28;20762;-72
2023/03/06 06:50:24;;;;;;;21.17;10.53;;;;;;;-145.18;100.00;46674.06;5029798;28;20508;-73
2023/03/06 06:52:49;;;;;;;25.30;11.27;;;;;;;-145.18;100.00;46681.88;5030458;28;20433;-72
2023/03/06 06:55:15;;;;;;;21.83;9.33;;;;;;;-145.18;100.00;46672.13;5031268;28;20519;-72
2023/03/06 06:57:41;;;;;;;22.60;11.37;;;;;;;-145.18;100.00;46672.13;5030589;28;20079;-72
2023/03/06 07:00:07;;;;;;;22.20;9.90;;;;;;;-145.18;100.00;46676.03;5031120;28;20040;-73
2023/03/06 07:02:32;;;;;;;18.83;9.03;;;;;;;-145.18;100.00;46676.03;5029581;28;20413;-73
2023/03/06 07:04:58;;;;;;;24.60;9.93;;;;;;;-145.18;100.00;46674.06;5030451;28;20290;-74
2023/03/06 07:07:23;;;;;;;23.30;11.20;;;;;;;-145.18;100.00;46670.16;5030961;28;20041;-75
2023/03/06 07:09:49;;;;;;;24.27;12.10;;;;;;;-145.18;100.00;46676.03;5030678;28;21067;-74
2023/03/06 07:12:14;;;;;;;21.70;9.60;;;;;;;-145.18;100.00;46672.13;5030958;28;20036;-73
2023/03/06 07:14:41;;;;;;;24.53;9.63;;;;;;;-145.18;100.00;46674.06;5030237;28;20393;-73
2023/03/06 07:17:07;;;;;;;22.87;11.47;;;;;;;-145.18;100.00;46677.97;5030562;28;20033;-74
2023/03/06 07:19:32;;;;;;;25.47;12.20;;;;;;;-145.18;100.00;46679.94;5030519;28;20796;-76
2023/03/06 07:21:59;;;;;;;27.33;12.53;;;;;;;-145.18;100.00;46677.97;5030628;28;20266;-73
2023/03/06 07:24:24;;;;;;;24.20;12.67;;;;;;;-145.18;100.00;46674.06;5030200;28;20037;-73
2023/03/06 07:26:50;;;;;;;26.97;13.33;;;;;;;-145.18;100.00;46674.06;5030599;28;20635;-73
2023/03/06 07:29:16;;;;;;;22.73;12.43;;;;;;;-145.18;100.00;46681.88;5030324;28;20091;-73
2023/03/06 07:31:41;;;;;;;27.73;14.23;;;;;;;-145.18;100.00;46666.25;5030571;28;20033;-73
2023/03/06 07:34:09;;;;;;;26.90;14.07;;;;;;;-145.18;100.00;46672.13;5030172;28;20080;-73
2023/03/06 07:36:34;;;;;;;26.00;13.47;;;;;;;-145.18;100.00;46677.97;5030560;28;20064;-73
2023/03/06 07:39:00;;;;;;;23.20;12.70;;;;;;;-145.18;100.00;46677.97;5030063;28;20338;-73
2023/03/06 07:41:25;;;;;;;26.83;13.70;;;;;;;-145.18;100.00;46674.06;5012457;28;20033;-73
2023/03/06 07:43:51;;;;;;;30.77;14.10;;;;;;;-145.18;100.00;46674.06;5029827;28;20037;-73
2023/03/06 07:46:17;;;;;;;30.53;14.90;;;;;;;-145.18;100.00;46672.13;5029915;28;20031;-73
2023/03/06 07:48:43;;;;;;;28.80;14.03;;;;;;;-145.18;100.00;46672.13;5029852;28;20072;-73
2023/03/06 07:51:19;;;;;;;26.33;14.53;;;;;;;-145.18;100.00;46664.31;5028982;28;20047;-73
2023/03/06 07:53:46;;;;;;;25.97;14.27;;;;;;;-145.18;100.00;46672.13;5029720;28;20263;-73
2023/03/06 07:56:12;;;;;;;25.63;14.07;;;;;;;-145.18;100.00;46668.22;5030135;28;20266;-72
2023/03/06 07:58:40;;;;;;;25.73;13.23;;;;;;;-145.18;100.00;46670.16;5029774;28;20326;-75
2023/03/06 08:01:08;;;;;;;27.53;14.03;;;;;;;-145.18;100.00;46674.06;5030232;28;20120;-75
2023/03/06 08:03:34;;;;;;;28.20;13.60;;;;;;;-145.18;100.00;46674.06;5029327;28;20844;-75
2023/03/06 08:06:11;;;;;;;26.33;14.73;;;;;;;-145.18;100.00;46670.16;5029958;28;20317;-75
2023/03/06 08:08:38;;;;;;;25.37;13.80;;;;;;;-145.18;100.00;46666.25;5029828;28;20337;-75
2023/03/06 08:11:04;;;;;;;25.73;13.50;;;;;;;-145.18;100.00;46674.06;5028179;28;20352;-75
2023/03/06 08:13:30;;;;;;;26.40;13.80;;;;;;;-145.18;100.00;46662.34;5028861;28;20290;-75
2023/03/06 08:15:55;;;;;;;24.80;13.63;;;;;;;-145.18;100.00;46672.13;5029504;28;20270;-75
2023/03/06 08:18:21;;;;;;;21.93;12.83;;;;;;;-145.18;100.00;46670.16;5029748;28;20100;-75
2023/03/06 08:20:46;;;;;;;21.33;12.90;;;;;;;-145.18;100.00;46672.13;5029684;28;20033;-75
2023/03/06 08:23:12;;;;;;;24.97;13.20;;;;;;;-145.18;100.00;46672.13;5029213;28;20038;-75
2023/03/06 08:25:38;;;;;;;24.63;12.53;;;;;;;-145.18;100.00;46672.13;5029552;28;20077;-76
2023/03/06 08:28:03;;;;;;;23.60;12.90;;;;;;;-145.18;100.00;46672.13;5029841;28;20021;-75
2023/03/06 08:30:29;;;;;;;26.83;13.17;;;;;;;-145.18;100.00;46670.16;5029821;28;20271;-76
2023/03/06 08:32:54;;;;;;;21.07;11.50;;;;;;;-145.18;100.00;46672.13;5029340;28;20150;-76
2023/03/06 08:35:19;;;;;;;19.67;10.17;;;;;;;-145.18;100.00;46676.03;5029459;28;20030;-76
2023/03/06 08:37:45;;;;;;;25.70;9.70;;;;;;;-145.18;100.00;46676.03;5028683;28;20034;-79
2023/03/06 08:40:11;;;;;;;14.73;9.80;;;;;;;-145.18;100.00;46676.03;5029550;28;20112;-78
2023/03/06 08:42:36;;;;;;;19.47;9.20;;;;;;;-145.18;100.00;46677.97;5029530;28;20389;-76
2023/03/06 08:45:02;;;;;;;14.37;8.90;;;;;;;-145.18;100.00;46679.94;5029330;28;20267;-76
2023/03/06 08:47:28;;;;;;;12.40;6.50;;;;;;;-145.18;100.00;46679.94;5029563;28;20088;-76
2023/03/06 08:49:53;;;;;;;12.53;6.27;;;;;;;-145.18;100.00;46687.75;5028964;28;20045;-75
2023/03/06 08:52:18;;;;;;;13.40;6.87;;;;;;;-145.18;100.00;46685.78;5029660;28;20040;-75
2023/03/06 08:54:44;;;;;;;14.03;7.03;;;;;;;-145.18;100.00;46689.69;5029285;28;20113;-76
2023/03/06 08:57:10;;;;;;;11.20;6.53;;;;;;;-145.18;100.00;46687.75;5029577;28;20033;-76
2023/03/06 08:59:35;;;;;;;24.60;11.03;;;;;;;-145.18;100.00;46689.69;5032183;28;20120;-76
2023/03/06 09:02:01;;;;;;;22.23;10.50;;;;;;;-145.18;100.00;46691.66;5032955;28;20389;-76
2023/03/06 09:04:29;;;;;;;10.30;5.93;;;;;;;-145.18;100.00;46691.66;5032659;28;20057;-76
2023/03/06 09:06:54;;;;;;;10.30;4.17;;;;;;;-145.18;100.00;46689.69;5032863;28;20025;-78
2023/03/06 09:09:19;;;;;;;9.83;4.03;;;;;;;-145.18;100.00;46689.69;5032865;28;20626;-76
2023/03/06 09:11:45;;;;;;;9.03;4.73;;;;;;;-145.18;100.00;46674.06;5032766;28;20037;-76
2023/03/06 09:14:11;;;;;;;9.20;4.20;;;;;;;-145.18;100.00;46650.63;5014786;28;20583;-77
2023/03/06 09:16:37;;;;;;;6.27;3.80;;;;;;;-145.18;100.00;46597.88;5032963;28;20613;-76
2023/03/06 09:19:02;;;;;;;9.87;3.97;;;;;;;-145.18;100.00;46572.50;5032615;28;20357;-76
2023/03/06 09:21:28;;;;;;;5.07;3.30;;;;;;;-145.18;100.00;46570.53;5032673;28;20145;-76
2023/03/06 09:23:54;;;;;;;7.37;3.23;;;;;;;-145.18;100.00;46601.78;5031756;28;20056;-76
2023/03/06 09:26:19;;;;;;;7.70;3.70;;;;;;;-145.18;100.00;46613.50;5014875;28;20033;-76
2023/03/06 09:28:45;;;;;;;9.90;3.07;;;;;;;-145.18;100.00;46636.94;5032369;28;20393;-77
2023/03/06 09:31:15;;;;;;;5.03;3.60;;;;;;;-145.18;100.00;46642.81;5032816;28;20084;-76
2023/03/06 09:33:40;;;;;;;7.30;2.83;;;;;;;-145.18;100.00;46660.41;5031834;28;20052;-76
2023/03/06 09:36:09;;;;;;;5.93;2.87;;;;;;;-145.18;100.00;46683.84;5032163;28;20267;-76
2023/03/06 09:38:34;;;;;;;9.37;2.93;;;;;;;-145.18;100.00;46697.50;5032023;28;20394;-76
2023/03/06 09:41:17;;;;;;;7.60;3.43;;;;;;;-145.18;100.00;46709.22;5032173;28;20277;-76
2023/03/06 09:43:45;;;;;;;9.87;3.47;;;;;;;-145.18;100.00;46744.38;5031207;28;20143;-76
2023/03/06 09:46:37;;;;;;;6.57;3.53;;;;;;;-145.18;100.00;46761.97;5030877;28;20424;-76
2023/03/06 09:49:33;;;;;;;5.77;3.00;;;;;;;-145.18;100.00;46775.66;5031802;28;20353;-75
2023/03/06 09:52:32;;;;;;;7.18;3.03;;;;;;;-145.18;100.00;46830.34;5032045;28;20286;-76
2023/03/06 09:55:03;;;;;;;5.87;2.93;;;;;;;-145.18;100.00;46824.47;5031643;28;20040;-75
2023/03/06 09:57:40;;;;;;;7.47;2.57;;;;;;;-145.18;100.00;46812.75;5031769;28;20274;-76
2023/03/06 10:00:15;;;;;;;7.10;2.00;;;;;;;-145.18;100.00;46865.50;5014884;28;20743;-76
2023/03/06 10:02:46;;;;;;;4.00;2.13;;;;;;;-145.18;100.00;46859.63;5031462;28;20259;-75
2023/03/06 10:05:30;;;;;;;6.27;2.37;;;;;;;-145.18;100.00;46855.72;5013663;28;20135;-75
2023/03/06 10:08:01;;;;;;;3.47;2.13;;;;;;;-145.18;100.00;46871.38;5031391;28;20324;-76
2023/03/06 10:10:42;;;;;;;4.83;2.30;;;;;;;-145.18;100.00;46836.19;5031413;28;20744;-75
2023/03/06 10:13:21;;;;;;;6.60;3.03;;;;;;;-145.18;100.00;46853.78;5014064;28;20267;-75
2023/03/06 10:15:47;;;;;;;9.77;3.80;;;;;;;-145.18;100.00;46855.72;5014270;28;20306;-75
2023/03/06 10:18:13;;;;;;;9.03;3.80;;;;;;;-145.18;100.00;46844.00;5031500;28;20270;-75
2023/03/06 10:21:01;;;;;;;7.93;4.23;;;;;;;-145.18;100.00;46814.72;5031371;28;20631;-75
2023/03/06 10:23:53;;;;;;;8.70;4.67;;;;;;;-145.18;100.00;46808.84;5030861;28;20040;-74
2023/03/06 10:26:23;;;;;;;9.53;4.17;;;;;;;-145.18;100.00;46773.69;5031528;28;20318;-75
2023/03/06 10:29:05;;;;;;;6.87;4.07;;;;;;;-145.18;100.00;46760.00;5030945;28;20346;-75
2023/03/06 10:31:33;;;;;;;10.70;6.03;;;;;;;-145.18;100.00;46719.00;5031400;28;20271;-75
2023/03/06 10:34:21;;;;;;;14.73;7.10;;;;;;;-145.18;100.00;46715.09;5030733;28;20611;-75
2023/03/06 10:36:47;;;;;;;10.47;6.23;;;;;;;-145.18;100.00;46697.50;5031382;28;20263;-75
2023/03/06 10:39:20;;;;;;;11.73;6.83;;;;;;;-145.18;100.00;46677.97;5030724;28;20773;-75
2023/03/06 10:41:47;;;;;;;11.40;6.40;;;;;;;-145.18;100.00;46679.94;5031127;28;20132;-75
2023/03/06 10:44:12;;;;;;;11.83;5.60;;;;;;;-145.18;100.00;46660.41;5030769;28;20377;-75
2023/03/06 10:46:43;;;;;;;9.97;5.30;;;;;;;-145.18;100.00;46648.69;5031012;28;20346;-75
2023/03/06 10:49:35;;;;;;;11.87;6.00;;;;;;;-145.18;100.00;46644.78;5030652;28;20148;-75
2023/03/06 10:52:12;;;;;;;9.97;5.60;;;;;;;-145.18;100.00;46635.00;5030972;28;20270;-74
2023/03/06 10:54:41;;;;;;;13.70;5.90;;;;;;;-145.18;100.00;46644.78;5030612;28;20267;-74
2023/03/06 10:57:25;;;;;;;8.50;5.27;;;;;;;-145.18;100.00;46642.81;5030745;28;20754;-75
2023/03/06 10:59:57;;;;;;;10.23;5.40;;;;;;;-145.18;100.00;46644.78;5030238;28;20263;-75
2023/03/06 11:02:28;;;;;;;11.03;6.33;;;;;;;-145.18;100.00;46636.94;5030648;28;20263;-74
2023/03/06 11:04:56;;;;;;;9.60;4.23;;;;;;;-145.18;100.00;46648.69;5030116;28;20294;-74
2023/03/06 11:07:24;;;;;;;7.07;3.97;;;;;;;-145.18;100.00;46654.53;5030961;28;20269;-74